M/y Bradley — 2EBD7 — position and weather

sailwx.info

Track history (hours):
 
Tides and Currents Weather Stations Pressure Air Temp Water Temp Dewpoint Dewpoint Depression Visibility Wind Speed Wind Dir Waves Ship Positions

M/y Bradley

Last reported at 2015-Aug-30 15:32 UTC. Time now 2015-Aug-30 18:09 UTC.
Position N 37°48' E 023°41'.

Length 24 m; draft 1.4 m.

Type: Pleasure craft. MMSI: 235083645.

Date/timePositionNaut miles runAvg speedWind from/ knotsBaromVisibWave heightAir tempDewpointWater temp
2015-Aug-30 15:32N 37°48' E 023°41'9 8.6
2015-Aug-30 14:31N 37°51' E 023°31'373 7.5
2015-Aug-28 12:27N 38°02' E 015°38'5 5.5
2015-Aug-28 11:28N 38°08' E 015°39'3 2.8
2015-Aug-28 10:33N 38°10' E 015°38'501 9.8
2015-Aug-26 07:30N 43°36' E 007°14'5 5.2
2015-Aug-26 06:33N 43°35' E 007°07'0 0.0
2015-Aug-26 05:33N 43°35' E 007°07'0 0.0
2015-Aug-26 04:33N 43°35' E 007°07'0 0.0
2015-Aug-26 03:33N 43°35' E 007°07'0 0.0
2015-Aug-26 02:33N 43°35' E 007°07'0 0.0
2015-Aug-26 01:33N 43°35' E 007°07'0 0.0
2015-Aug-26 00:33N 43°35' E 007°07'0 0.0
2015-Aug-25 23:33N 43°35' E 007°07'0 0.0
2015-Aug-25 22:33N 43°35' E 007°07'0 0.0
2015-Aug-25 21:33N 43°35' E 007°07'0 0.0
2015-Aug-25 20:33N 43°35' E 007°07'0 0.0
2015-Aug-25 19:33N 43°35' E 007°07'0 0.0
2015-Aug-25 18:33N 43°35' E 007°07'0 0.0
2015-Aug-25 17:33N 43°35' E 007°07'0 0.0
2015-Aug-25 16:27N 43°35' E 007°07'0 0.0
2015-Aug-25 15:21N 43°35' E 007°07'0 0.0
2015-Aug-25 14:33N 43°35' E 007°07'0 0.0
2015-Aug-25 13:33N 43°35' E 007°07'0 0.0
2015-Aug-25 12:27N 43°35' E 007°07'0 0.0
2015-Aug-25 11:33N 43°35' E 007°07'0 0.0
2015-Aug-25 10:33N 43°35' E 007°07'0 0.4
2015-Aug-25 09:32N 43°36' E 007°08'1 0.0
2015-Aug-23 10:33N 43°36' E 007°10'2 1.8
2015-Aug-23 09:30N 43°35' E 007°07'0 0.0
2015-Aug-23 08:30N 43°35' E 007°07'0 0.0
2015-Aug-23 07:24N 43°35' E 007°07'0 0.0
2015-Aug-23 06:30N 43°35' E 007°07'0 0.0
2015-Aug-23 05:30N 43°35' E 007°07'0 0.0
2015-Aug-23 04:24N 43°35' E 007°07'0 0.0
2015-Aug-23 03:30N 43°35' E 007°07'0 0.0
2015-Aug-23 02:30N 43°35' E 007°07'0 0.0
2015-Aug-23 01:24N 43°35' E 007°07'0 0.0
2015-Aug-23 00:30N 43°35' E 007°07'0 0.0
2015-Aug-22 23:24N 43°35' E 007°07'0 0.0
2015-Aug-22 22:24N 43°35' E 007°07'0 0.0
2015-Aug-22 21:30N 43°35' E 007°07'0 0.0
2015-Aug-22 20:18N 43°35' E 007°07'0 0.0
2015-Aug-22 19:30N 43°35' E 007°07'0 0.0
2015-Aug-22 18:30N 43°35' E 007°07'1 0.6
2015-Aug-22 17:33N 43°35' E 007°08'1 0.1
2015-Aug-22 13:28N 43°35' E 007°07'0 0.0
2015-Aug-22 12:28N 43°35' E 007°07'0 0.0
2015-Aug-22 11:28N 43°35' E 007°07'0 0.0
2015-Aug-22 09:22N 43°35' E 007°07'0 0.0
2015-Aug-22 07:22N 43°35' E 007°07'0 0.0
2015-Aug-22 06:28N 43°35' E 007°07'0 0.0
2015-Aug-22 05:28N 43°35' E 007°07'0 0.0
2015-Aug-22 04:28N 43°35' E 007°07'0 0.0
2015-Aug-22 03:28N 43°35' E 007°07'0 0.0
2015-Aug-22 02:28N 43°35' E 007°07'0 0.0
2015-Aug-22 01:28N 43°35' E 007°07'0 0.0
2015-Aug-22 00:28N 43°35' E 007°07'0 0.0
2015-Aug-21 23:28N 43°35' E 007°07'0 0.0
2015-Aug-21 22:28N 43°35' E 007°07'0 0.0
2015-Aug-21 21:28N 43°35' E 007°07'0 0.0
2015-Aug-21 20:28N 43°35' E 007°07'0 0.0
2015-Aug-21 19:34N 43°35' E 007°07'1 1.2
2015-Aug-21 18:33N 43°35' E 007°09'  
Track history (hours):
 
Tides and Currents Weather Stations Pressure Air Temp Water Temp Dewpoint Dewpoint Depression Visibility Wind Speed Wind Dir Waves Ship Positions

M/y Bradley

Last reported at 2015-Aug-30 15:32 UTC. Time now 2015-Aug-30 18:09 UTC.
Position N 37°48' E 023°41'.

Length 24 m; draft 1.4 m.

Type: Pleasure craft. MMSI: 235083645.

Date/timePositionNaut miles runAvg speedWind from/ knotsBaromVisibWave heightAir tempDewpointWater temp
2015-Aug-30 15:32N 37°48' E 023°41'9 8.6
2015-Aug-30 14:31N 37°51' E 023°31'373 7.5
2015-Aug-28 12:27N 38°02' E 015°38'5 5.5
2015-Aug-28 11:28N 38°08' E 015°39'3 2.8
2015-Aug-28 10:33N 38°10' E 015°38'501 9.8
2015-Aug-26 07:30N 43°36' E 007°14'5 5.2
2015-Aug-26 06:33N 43°35' E 007°07'0 0.0
2015-Aug-26 05:33N 43°35' E 007°07'0 0.0
2015-Aug-26 04:33N 43°35' E 007°07'0 0.0
2015-Aug-26 03:33N 43°35' E 007°07'0 0.0
2015-Aug-26 02:33N 43°35' E 007°07'0 0.0
2015-Aug-26 01:33N 43°35' E 007°07'0 0.0
2015-Aug-26 00:33N 43°35' E 007°07'0 0.0
2015-Aug-25 23:33N 43°35' E 007°07'0 0.0
2015-Aug-25 22:33N 43°35' E 007°07'0 0.0
2015-Aug-25 21:33N 43°35' E 007°07'0 0.0
2015-Aug-25 20:33N 43°35' E 007°07'0 0.0
2015-Aug-25 19:33N 43°35' E 007°07'0 0.0
2015-Aug-25 18:33N 43°35' E 007°07'0 0.0
2015-Aug-25 17:33N 43°35' E 007°07'0 0.0
2015-Aug-25 16:27N 43°35' E 007°07'0 0.0
2015-Aug-25 15:21N 43°35' E 007°07'0 0.0
2015-Aug-25 14:33N 43°35' E 007°07'0 0.0
2015-Aug-25 13:33N 43°35' E 007°07'0 0.0
2015-Aug-25 12:27N 43°35' E 007°07'0 0.0
2015-Aug-25 11:33N 43°35' E 007°07'0 0.0
2015-Aug-25 10:33N 43°35' E 007°07'0 0.4
2015-Aug-25 09:32N 43°36' E 007°08'1 0.0
2015-Aug-23 10:33N 43°36' E 007°10'2 1.8
2015-Aug-23 09:30N 43°35' E 007°07'0 0.0
2015-Aug-23 08:30N 43°35' E 007°07'0 0.0
2015-Aug-23 07:24N 43°35' E 007°07'0 0.0
2015-Aug-23 06:30N 43°35' E 007°07'0 0.0
2015-Aug-23 05:30N 43°35' E 007°07'0 0.0
2015-Aug-23 04:24N 43°35' E 007°07'0 0.0
2015-Aug-23 03:30N 43°35' E 007°07'0 0.0
2015-Aug-23 02:30N 43°35' E 007°07'0 0.0
2015-Aug-23 01:24N 43°35' E 007°07'0 0.0
2015-Aug-23 00:30N 43°35' E 007°07'0 0.0
2015-Aug-22 23:24N 43°35' E 007°07'0 0.0
2015-Aug-22 22:24N 43°35' E 007°07'0 0.0
2015-Aug-22 21:30N 43°35' E 007°07'0 0.0
2015-Aug-22 20:18N 43°35' E 007°07'0 0.0
2015-Aug-22 19:30N 43°35' E 007°07'0 0.0
2015-Aug-22 18:30N 43°35' E 007°07'1 0.6
2015-Aug-22 17:33N 43°35' E 007°08'1 0.1
2015-Aug-22 13:28N 43°35' E 007°07'0 0.0
2015-Aug-22 12:28N 43°35' E 007°07'0 0.0
2015-Aug-22 11:28N 43°35' E 007°07'0 0.0
2015-Aug-22 09:22N 43°35' E 007°07'0 0.0
2015-Aug-22 07:22N 43°35' E 007°07'0 0.0
2015-Aug-22 06:28N 43°35' E 007°07'0 0.0
2015-Aug-22 05:28N 43°35' E 007°07'0 0.0
2015-Aug-22 04:28N 43°35' E 007°07'0 0.0
2015-Aug-22 03:28N 43°35' E 007°07'0 0.0
2015-Aug-22 02:28N 43°35' E 007°07'0 0.0
2015-Aug-22 01:28N 43°35' E 007°07'0 0.0
2015-Aug-22 00:28N 43°35' E 007°07'0 0.0
2015-Aug-21 23:28N 43°35' E 007°07'0 0.0
2015-Aug-21 22:28N 43°35' E 007°07'0 0.0
2015-Aug-21 21:28N 43°35' E 007°07'0 0.0
2015-Aug-21 20:28N 43°35' E 007°07'0 0.0
2015-Aug-21 19:34N 43°35' E 007°07'1 1.2
2015-Aug-21 18:33N 43°35' E 007°09'  

Dump ship's entire track history